Edmonton Namao, Alberta

7:05 AM MDT on April 28, 2015 (GMT -0600)
Edmonton Namao | | Change Station
CLOSE
Current Station
Airport
Location: Edmonton Namao,
Elevation: 2257 ft
Nearby Weather Stations

Elev 2257 ft 53.67 °N, 113.47 °W | Updated 1 hour ago

Clear
Clear
41 °F
Feels Like 37 °F
N
6
Wind Variable Wind from SSW

Today is forecast to be nearly the same temperature as yesterday.

Today
High -- | Low -- °F
--% Chance of Precip.
Yesterday
High -- | Low -- °F
Precip. -- in
6:05 AM 8:58 PM
Waxing Gibbous, 73% visible
Pressure 30.01 in
Visibility 9.0 miles
Clouds Clear
Windchill 37 °F
Dew Point 30 °F
Humidity 65%
Rainfall 0.00 in
Snow Depth Not available.
UV 0 out of 12
Pollen Not available.
Air Quality Not available.
Flu Activity Not available.
METAR CYED 281200Z AUTO 20005KT 9SM CLR 05/M01 A2998 RMK SLP163

More Conditions Fewer Conditions

Pressure 30.01 in
Visibility 9.0 miles
Clouds Clear
Windchill 37 °F
Dew Point 30 °F
Humidity 65%
Rainfall 0.00 in
Snow Depth Not available.
UV 0 out of 12
Pollen Not available.
Air Quality Not available.
Flu Activity Not available.
METAR CYED 281200Z AUTO 20005KT 9SM CLR 05/M01 A2998 RMK SLP163

More Conditions Fewer Conditions

10-Day Weather Forecast

Almanac

Astronomy

Apr. 28, 2015 Rise Set
Actual Time
Civil Twilight
Nautical Twilight
Astronomical Twilight
Moon
Length of Visible Light
Length of Day
Tomorrow will be .
, % of the Moon is Illuminated

Today's Extremes

Country Highs Country Lows

Community

WunderPhotos

Upload Photos

1,817,621 photos uploaded!

WunderBlogs® & News

Nearby

Air Quality

  Air Quality AQ Index Pollutant
Not available.

Snow Depth

Station Depth Elevation

Earthquake Activity

City Distance Mag. Time & Date
Minimum magnitude displayed is 2.5.

Coastal Water Temperatures

Place Temperature

Stations

Nearby Weather Stations

Station Location Temp. Windchill Dew Point Humidity Wind Precip. Elev Updated Type